SWA278 KBWI-KMEM
Flight info
| Callsign | SWA278 |
|---|---|
| Flight time | 2h 6m |
| Altitude | 37000 |
| Route | FOXHL1 OTTTO Q80 FAREV RAMRD BLUZZ5 |
| Aircraft | A20N/M-SDE2E3FGHIRWXY/LB1 |
Departure
| Time | 2026-05-05 23:40 |
|---|---|
| Airport | Baltimore/Washington International Thurgood Marshall Airport (KBWI) |
Arrival
| Time | 2026-05-06 01:46 |
|---|---|
| Airport | Memphis International Airport (KMEM) |
| Time | Latitude | Longitude | Altitude | Speed | Heading |
|---|---|---|---|---|---|
| 2026-05-05 23:06 | 39.17783 | -76.66632 | 156 ft | 0 kts | 251° |
| 2026-05-05 23:27 | 39.17783 | -76.66631 | 156 ft | 1 kts | 251° |
| 2026-05-05 23:27 | 39.17786 | -76.66623 | 155 ft | 1 kts | 251° |
| 2026-05-05 23:27 | 39.17788 | -76.66613 | 156 ft | 1 kts | 251° |
| 2026-05-05 23:28 | 39.17791 | -76.66603 | 155 ft | 1 kts | 251° |
| 2026-05-05 23:28 | 39.17793 | -76.66594 | 156 ft | 1 kts | 244° |
| 2026-05-05 23:28 | 39.17797 | -76.66585 | 156 ft | 1 kts | 229° |
| 2026-05-05 23:28 | 39.17802 | -76.66578 | 156 ft | 1 kts | 213° |
| 2026-05-05 23:29 | 39.17809 | -76.66573 | 156 ft | 1 kts | 198° |
| 2026-05-05 23:29 | 39.17816 | -76.66570 | 156 ft | 1 kts | 178° |
| 2026-05-05 23:29 | 39.17824 | -76.66571 | 155 ft | 1 kts | 154° |
| 2026-05-05 23:29 | 39.17825 | -76.66571 | 156 ft | 0 kts | 150° |
| 2026-05-05 23:34 | 39.17815 | -76.66564 | 156 ft | 5 kts | 150° |
| 2026-05-05 23:34 | 39.17774 | -76.66525 | 156 ft | 10 kts | 135° |
| 2026-05-05 23:34 | 39.17729 | -76.66433 | 155 ft | 14 kts | 107° |
| 2026-05-05 23:34 | 39.17773 | -76.66332 | 155 ft | 14 kts | 67° |
| 2026-05-05 23:35 | 39.17751 | -76.66230 | 154 ft | 14 kts | 115° |
| 2026-05-05 23:35 | 39.17694 | -76.66084 | 150 ft | 22 kts | 118° |
| 2026-05-05 23:35 | 39.17624 | -76.65903 | 145 ft | 23 kts | 116° |
| 2026-05-05 23:35 | 39.17555 | -76.65724 | 144 ft | 21 kts | 117° |
| 2026-05-05 23:36 | 39.17498 | -76.65663 | 142 ft | 12 kts | 171° |
| 2026-05-05 23:36 | 39.17425 | -76.65619 | 142 ft | 14 kts | 111° |
| 2026-05-05 23:36 | 39.17377 | -76.65527 | 141 ft | 3 kts | 168° |
| 2026-05-05 23:38 | 39.17371 | -76.65526 | 141 ft | 3 kts | 168° |
| 2026-05-05 23:38 | 39.17338 | -76.65524 | 141 ft | 8 kts | 181° |
| 2026-05-05 23:38 | 39.17287 | -76.65565 | 140 ft | 11 kts | 251° |
| 2026-05-05 23:39 | 39.17284 | -76.65651 | 140 ft | 0 kts | 273° |
| 2026-05-05 23:39 | 39.17286 | -76.65683 | 141 ft | 18 kts | 273° |
| 2026-05-05 23:39 | 39.17303 | -76.66202 | 147 ft | 96 kts | 273° |
| 2026-05-05 23:39 | 39.17365 | -76.67336 | 174 ft | 153 kts | 273° |
| 2026-05-05 23:40 | 39.17477 | -76.68659 | 883 ft | 148 kts | 272° |
| 2026-05-05 23:40 | 39.17636 | -76.70024 | 1488 ft | 157 kts | 272° |
| 2026-05-05 23:40 | 39.17821 | -76.71440 | 2264 ft | 164 kts | 271° |
| 2026-05-05 23:40 | 39.18019 | -76.72906 | 3078 ft | 172 kts | 272° |
| 2026-05-05 23:41 | 39.18233 | -76.74464 | 3972 ft | 181 kts | 273° |
| 2026-05-05 23:41 | 39.18463 | -76.76108 | 4927 ft | 190 kts | 274° |
| 2026-05-05 23:41 | 39.18684 | -76.77822 | 5816 ft | 201 kts | 271° |
| 2026-05-05 23:41 | 39.18857 | -76.79700 | 6500 ft | 221 kts | 272° |
| 2026-05-05 23:42 | 39.19103 | -76.81737 | 7269 ft | 235 kts | 276° |
| 2026-05-05 23:42 | 39.19439 | -76.83825 | 8095 ft | 239 kts | 278° |
| 2026-05-05 23:42 | 39.19825 | -76.85926 | 8958 ft | 241 kts | 280° |
| 2026-05-05 23:42 | 39.20231 | -76.88032 | 9499 ft | 244 kts | 281° |
| 2026-05-05 23:43 | 39.20644 | -76.90137 | 9222 ft | 245 kts | 281° |
| 2026-05-05 23:43 | 39.21068 | -76.92286 | 9032 ft | 257 kts | 281° |
| 2026-05-05 23:43 | 39.21515 | -76.94587 | 9022 ft | 266 kts | 281° |
| 2026-05-05 23:43 | 39.21908 | -76.96902 | 9029 ft | 264 kts | 275° |
| 2026-05-05 23:44 | 39.22029 | -76.99271 | 9030 ft | 265 kts | 268° |
| 2026-05-05 23:44 | 39.22053 | -77.01640 | 9028 ft | 263 kts | 269° |
| 2026-05-05 23:44 | 39.22085 | -77.04005 | 9021 ft | 263 kts | 269° |
| 2026-05-05 23:44 | 39.22122 | -77.06362 | 9027 ft | 264 kts | 269° |
| 2026-05-05 23:45 | 39.22159 | -77.08731 | 9026 ft | 263 kts | 269° |
| 2026-05-05 23:45 | 39.22194 | -77.11092 | 9026 ft | 264 kts | 268° |
| 2026-05-05 23:45 | 39.21943 | -77.13362 | 9028 ft | 262 kts | 251° |
| 2026-05-05 23:45 | 39.21075 | -77.15418 | 9028 ft | 263 kts | 232° |
| 2026-05-05 23:46 | 39.19802 | -77.17127 | 9024 ft | 264 kts | 227° |
| 2026-05-05 23:46 | 39.18513 | -77.18816 | 9031 ft | 264 kts | 227° |
| 2026-05-05 23:46 | 39.17228 | -77.20508 | 9025 ft | 264 kts | 227° |
| 2026-05-05 23:46 | 39.15947 | -77.22198 | 9029 ft | 263 kts | 227° |
| 2026-05-05 23:47 | 39.14665 | -77.23890 | 9029 ft | 264 kts | 227° |
| 2026-05-05 23:47 | 39.13386 | -77.25582 | 9019 ft | 264 kts | 227° |
| 2026-05-05 23:47 | 39.12098 | -77.27283 | 9212 ft | 264 kts | 227° |
| 2026-05-05 23:47 | 39.10842 | -77.28935 | 10206 ft | 252 kts | 228° |
| 2026-05-05 23:48 | 39.09669 | -77.30476 | 11703 ft | 236 kts | 228° |
| 2026-05-05 23:48 | 39.08551 | -77.31941 | 13315 ft | 218 kts | 229° |
| 2026-05-05 23:48 | 39.07528 | -77.33286 | 14577 ft | 210 kts | 229° |
| 2026-05-05 23:48 | 39.06502 | -77.34643 | 15478 ft | 213 kts | 229° |
| 2026-05-05 23:49 | 39.05481 | -77.36045 | 16344 ft | 216 kts | 233° |
| 2026-05-05 23:49 | 39.04661 | -77.37671 | 17230 ft | 218 kts | 244° |
| 2026-05-05 23:49 | 39.04128 | -77.39503 | 18112 ft | 221 kts | 253° |
| 2026-05-05 23:49 | 39.03717 | -77.41421 | 18868 ft | 224 kts | 253° |
| 2026-05-05 23:50 | 39.03287 | -77.43358 | 19645 ft | 226 kts | 252° |
| 2026-05-05 23:50 | 39.02845 | -77.45311 | 20412 ft | 228 kts | 252° |
| 2026-05-05 23:50 | 39.02396 | -77.47279 | 21152 ft | 231 kts | 252° |
| 2026-05-05 23:50 | 39.01938 | -77.49282 | 21860 ft | 235 kts | 252° |
| 2026-05-05 23:51 | 39.01474 | -77.51316 | 22580 ft | 239 kts | 252° |
| 2026-05-05 23:51 | 39.01003 | -77.53379 | 23297 ft | 243 kts | 252° |
| 2026-05-05 23:51 | 39.00528 | -77.55455 | 23900 ft | 246 kts | 252° |
| 2026-05-05 23:51 | 39.00042 | -77.57578 | 24498 ft | 249 kts | 253° |
| 2026-05-05 23:52 | 38.99549 | -77.59726 | 25076 ft | 252 kts | 253° |
| 2026-05-05 23:52 | 38.99051 | -77.61890 | 25635 ft | 255 kts | 253° |
| 2026-05-05 23:52 | 38.98545 | -77.64090 | 26209 ft | 257 kts | 254° |
| 2026-05-05 23:52 | 38.98034 | -77.66312 | 26752 ft | 260 kts | 254° |
| 2026-05-05 23:53 | 38.97517 | -77.68555 | 27305 ft | 263 kts | 255° |
| 2026-05-05 23:53 | 38.96995 | -77.70818 | 27828 ft | 266 kts | 255° |
| 2026-05-05 23:53 | 38.96469 | -77.73103 | 28370 ft | 268 kts | 255° |
| 2026-05-05 23:53 | 38.95934 | -77.75420 | 28881 ft | 272 kts | 255° |
| 2026-05-05 23:54 | 38.95393 | -77.77761 | 29394 ft | 274 kts | 256° |
| 2026-05-05 23:54 | 38.94848 | -77.80119 | 29880 ft | 277 kts | 256° |
| 2026-05-05 23:54 | 38.94295 | -77.82509 | 30320 ft | 280 kts | 256° |
| 2026-05-05 23:54 | 38.93736 | -77.84923 | 30746 ft | 282 kts | 256° |
| 2026-05-05 23:55 | 38.93175 | -77.87350 | 31163 ft | 285 kts | 256° |
| 2026-05-05 23:55 | 38.92607 | -77.89798 | 31566 ft | 287 kts | 257° |
| 2026-05-05 23:55 | 38.92033 | -77.92274 | 31953 ft | 291 kts | 257° |
| 2026-05-05 23:55 | 38.91453 | -77.94770 | 32378 ft | 293 kts | 257° |
| 2026-05-05 23:56 | 38.90877 | -77.97249 | 32771 ft | 295 kts | 257° |
| 2026-05-05 23:56 | 38.90288 | -77.99783 | 33132 ft | 298 kts | 257° |
| 2026-05-05 23:56 | 38.89691 | -78.02345 | 33532 ft | 300 kts | 257° |
| 2026-05-05 23:56 | 38.89088 | -78.04927 | 33882 ft | 303 kts | 257° |
| 2026-05-05 23:57 | 38.88481 | -78.07525 | 34191 ft | 305 kts | 257° |
| 2026-05-05 23:57 | 38.87870 | -78.10136 | 34537 ft | 306 kts | 258° |
| 2026-05-05 23:57 | 38.87255 | -78.12760 | 34857 ft | 308 kts | 258° |
| 2026-05-05 23:57 | 38.86636 | -78.15397 | 35168 ft | 310 kts | 258° |
| 2026-05-05 23:58 | 38.86035 | -78.18054 | 35501 ft | 309 kts | 262° |
| 2026-05-05 23:58 | 38.85615 | -78.20756 | 35733 ft | 310 kts | 267° |
| 2026-05-05 23:58 | 38.85412 | -78.23497 | 35853 ft | 315 kts | 272° |
| 2026-05-05 23:58 | 38.85394 | -78.26348 | 35872 ft | 325 kts | 274° |
| 2026-05-05 23:59 | 38.85394 | -78.29292 | 35869 ft | 336 kts | 273° |
| 2026-05-05 23:59 | 38.85384 | -78.32345 | 35861 ft | 347 kts | 273° |
| 2026-05-05 23:59 | 38.85342 | -78.35491 | 35871 ft | 359 kts | 270° |
| 2026-05-05 23:59 | 38.85097 | -78.38730 | 35873 ft | 371 kts | 266° |
| 2026-05-06 00:00 | 38.84610 | -78.42044 | 35866 ft | 384 kts | 263° |
| 2026-05-06 00:00 | 38.84045 | -78.45432 | 35859 ft | 393 kts | 263° |
| 2026-05-06 00:00 | 38.82917 | -78.52285 | 35895 ft | 392 kts | 263° |
| 2026-05-06 00:01 | 38.81789 | -78.59132 | 35882 ft | 392 kts | 263° |
| 2026-05-06 00:01 | 38.80661 | -78.65956 | 35894 ft | 391 kts | 263° |
| 2026-05-06 00:02 | 38.79529 | -78.72779 | 35875 ft | 391 kts | 263° |
| 2026-05-06 00:02 | 38.78395 | -78.79586 | 35886 ft | 390 kts | 263° |
| 2026-05-06 00:03 | 38.77266 | -78.86337 | 35883 ft | 389 kts | 263° |
| 2026-05-06 00:03 | 38.76126 | -78.93137 | 35876 ft | 390 kts | 263° |
| 2026-05-06 00:04 | 38.74982 | -78.99927 | 35877 ft | 389 kts | 264° |
| 2026-05-06 00:04 | 38.73837 | -79.06693 | 35876 ft | 387 kts | 263° |
| 2026-05-06 00:05 | 38.72114 | -79.16841 | 35882 ft | 389 kts | 264° |
| 2026-05-06 00:06 | 38.70959 | -79.23602 | 35888 ft | 388 kts | 264° |
| 2026-05-06 00:06 | 38.69829 | -79.30369 | 35892 ft | 388 kts | 264° |
| 2026-05-06 00:07 | 38.68733 | -79.37078 | 35889 ft | 387 kts | 264° |
| 2026-05-06 00:07 | 38.67622 | -79.43819 | 35893 ft | 386 kts | 265° |
| 2026-05-06 00:08 | 38.66689 | -79.49458 | 35897 ft | 387 kts | 264° |
| 2026-05-06 00:08 | 38.65579 | -79.56127 | 35902 ft | 385 kts | 264° |
| 2026-05-06 00:09 | 38.64459 | -79.62830 | 35907 ft | 386 kts | 265° |
| 2026-05-06 00:09 | 38.63332 | -79.69555 | 35908 ft | 384 kts | 264° |
| 2026-05-06 00:10 | 38.62153 | -79.76217 | 35910 ft | 383 kts | 264° |
| 2026-05-06 00:10 | 38.60958 | -79.82808 | 35903 ft | 381 kts | 264° |
| 2026-05-06 00:11 | 38.59766 | -79.89407 | 35911 ft | 383 kts | 264° |
| 2026-05-06 00:11 | 38.58570 | -79.96034 | 35908 ft | 381 kts | 264° |
| 2026-05-06 00:12 | 38.57373 | -80.02642 | 35904 ft | 381 kts | 264° |
| 2026-05-06 00:12 | 38.56177 | -80.09220 | 35901 ft | 379 kts | 264° |
| 2026-05-06 00:13 | 38.54987 | -80.15735 | 35903 ft | 378 kts | 264° |
| 2026-05-06 00:13 | 38.53774 | -80.22294 | 35897 ft | 380 kts | 264° |
| 2026-05-06 00:14 | 38.52556 | -80.28847 | 35894 ft | 377 kts | 264° |
| 2026-05-06 00:14 | 38.51344 | -80.35361 | 35892 ft | 377 kts | 264° |
| 2026-05-06 00:15 | 38.50126 | -80.41881 | 35895 ft | 377 kts | 264° |
| 2026-05-06 00:15 | 38.48904 | -80.48405 | 35888 ft | 378 kts | 264° |
| 2026-05-06 00:16 | 38.47680 | -80.54917 | 35888 ft | 376 kts | 264° |
| 2026-05-06 00:16 | 38.46457 | -80.61406 | 35886 ft | 377 kts | 264° |
| 2026-05-06 00:17 | 38.45232 | -80.67880 | 35886 ft | 377 kts | 264° |
| 2026-05-06 00:17 | 38.44001 | -80.74355 | 35880 ft | 374 kts | 264° |
| 2026-05-06 00:18 | 38.42771 | -80.80821 | 35882 ft | 375 kts | 264° |
| 2026-05-06 00:18 | 38.41537 | -80.87281 | 35884 ft | 375 kts | 264° |
| 2026-05-06 00:19 | 38.40306 | -80.93705 | 35879 ft | 374 kts | 264° |
| 2026-05-06 00:19 | 38.39067 | -81.00147 | 35883 ft | 375 kts | 264° |
| 2026-05-06 00:20 | 38.37820 | -81.06612 | 35877 ft | 374 kts | 264° |
| 2026-05-06 00:20 | 38.36422 | -81.13029 | 35883 ft | 378 kts | 261° |
| 2026-05-06 00:21 | 38.34877 | -81.19407 | 35885 ft | 376 kts | 261° |
| 2026-05-06 00:21 | 38.33349 | -81.25737 | 35875 ft | 376 kts | 261° |
| 2026-05-06 00:22 | 38.31797 | -81.32136 | 35882 ft | 376 kts | 261° |
| 2026-05-06 00:22 | 38.30248 | -81.38508 | 35884 ft | 376 kts | 261° |
| 2026-05-06 00:23 | 38.28702 | -81.44837 | 35889 ft | 376 kts | 261° |
| 2026-05-06 00:23 | 38.27151 | -81.51171 | 35886 ft | 375 kts | 261° |
| 2026-05-06 00:24 | 38.25598 | -81.57507 | 35885 ft | 375 kts | 261° |
| 2026-05-06 00:24 | 38.24037 | -81.63855 | 35885 ft | 375 kts | 261° |
| 2026-05-06 00:25 | 38.22476 | -81.70177 | 35887 ft | 375 kts | 261° |
| 2026-05-06 00:25 | 38.20811 | -81.76469 | 35883 ft | 376 kts | 258° |
| 2026-05-06 00:26 | 38.19033 | -81.82682 | 35884 ft | 375 kts | 258° |
| 2026-05-06 00:26 | 38.17262 | -81.88930 | 35887 ft | 376 kts | 259° |
| 2026-05-06 00:27 | 38.15498 | -81.95193 | 35885 ft | 376 kts | 259° |
| 2026-05-06 00:27 | 38.13737 | -82.01442 | 35886 ft | 376 kts | 259° |
| 2026-05-06 00:28 | 38.11972 | -82.07691 | 35891 ft | 376 kts | 259° |
| 2026-05-06 00:28 | 38.10214 | -82.13903 | 35887 ft | 376 kts | 258° |
| 2026-05-06 00:29 | 38.08444 | -82.20135 | 35888 ft | 374 kts | 258° |
| 2026-05-06 00:29 | 38.06672 | -82.26361 | 35887 ft | 374 kts | 258° |
| 2026-05-06 00:30 | 38.04899 | -82.32578 | 35889 ft | 375 kts | 258° |
| 2026-05-06 00:30 | 38.03121 | -82.38796 | 35890 ft | 374 kts | 258° |
| 2026-05-06 00:31 | 38.01356 | -82.44959 | 35891 ft | 374 kts | 258° |
| 2026-05-06 00:31 | 37.99576 | -82.51155 | 35894 ft | 373 kts | 258° |
| 2026-05-06 00:32 | 37.97795 | -82.57342 | 35899 ft | 373 kts | 258° |
| 2026-05-06 00:32 | 37.96012 | -82.63525 | 35899 ft | 374 kts | 258° |
| 2026-05-06 00:33 | 37.94222 | -82.69714 | 35896 ft | 374 kts | 258° |
| 2026-05-06 00:33 | 37.92430 | -82.75892 | 35897 ft | 373 kts | 258° |
| 2026-05-06 00:34 | 37.90637 | -82.82060 | 35895 ft | 372 kts | 258° |
| 2026-05-06 00:34 | 37.88838 | -82.88179 | 35894 ft | 373 kts | 257° |
| 2026-05-06 00:35 | 37.86982 | -82.94334 | 35893 ft | 374 kts | 257° |
| 2026-05-06 00:35 | 37.85123 | -83.00488 | 35890 ft | 374 kts | 257° |
| 2026-05-06 00:36 | 37.83270 | -83.06627 | 35888 ft | 373 kts | 257° |
| 2026-05-06 00:36 | 37.81418 | -83.12755 | 35889 ft | 373 kts | 257° |
| 2026-05-06 00:37 | 37.79575 | -83.18841 | 35890 ft | 373 kts | 257° |
| 2026-05-06 00:37 | 37.77713 | -83.24973 | 35893 ft | 373 kts | 257° |
| 2026-05-06 00:38 | 37.75919 | -83.31110 | 35892 ft | 371 kts | 258° |
| 2026-05-06 00:38 | 37.74167 | -83.37253 | 35893 ft | 371 kts | 258° |
| 2026-05-06 00:39 | 37.72412 | -83.43346 | 35893 ft | 371 kts | 258° |
| 2026-05-06 00:39 | 37.70637 | -83.49473 | 35891 ft | 371 kts | 258° |
| 2026-05-06 00:40 | 37.68860 | -83.55587 | 35888 ft | 370 kts | 258° |
| 2026-05-06 00:40 | 37.67083 | -83.61691 | 35885 ft | 370 kts | 258° |
| 2026-05-06 00:41 | 37.65306 | -83.67780 | 35880 ft | 369 kts | 258° |
| 2026-05-06 00:41 | 37.63525 | -83.73873 | 35876 ft | 370 kts | 258° |
| 2026-05-06 00:42 | 37.61744 | -83.79951 | 35874 ft | 369 kts | 258° |
| 2026-05-06 00:42 | 37.59970 | -83.85987 | 35874 ft | 369 kts | 258° |
| 2026-05-06 00:43 | 37.58185 | -83.92052 | 35872 ft | 369 kts | 257° |
| 2026-05-06 00:43 | 37.56395 | -83.98115 | 35866 ft | 368 kts | 257° |
| 2026-05-06 00:44 | 37.54608 | -84.04157 | 35865 ft | 368 kts | 257° |
| 2026-05-06 00:44 | 37.52819 | -84.10195 | 35861 ft | 367 kts | 257° |
| 2026-05-06 00:45 | 37.51023 | -84.16246 | 35862 ft | 368 kts | 257° |
| 2026-05-06 00:45 | 37.49226 | -84.22281 | 35862 ft | 368 kts | 257° |
| 2026-05-06 00:46 | 37.47419 | -84.28268 | 35858 ft | 367 kts | 256° |
| 2026-05-06 00:46 | 37.45530 | -84.34254 | 35859 ft | 368 kts | 256° |
| 2026-05-06 00:47 | 37.43637 | -84.40247 | 35862 ft | 368 kts | 256° |
| 2026-05-06 00:47 | 37.41748 | -84.46238 | 35860 ft | 368 kts | 256° |
| 2026-05-06 00:48 | 37.39859 | -84.52229 | 35860 ft | 368 kts | 256° |
| 2026-05-06 00:48 | 37.37967 | -84.58215 | 35867 ft | 368 kts | 256° |
| 2026-05-06 00:49 | 37.36070 | -84.64205 | 35866 ft | 369 kts | 256° |
| 2026-05-06 00:49 | 37.34171 | -84.70186 | 35866 ft | 368 kts | 256° |
| 2026-05-06 00:50 | 37.32281 | -84.76130 | 35877 ft | 369 kts | 256° |
| 2026-05-06 00:50 | 37.30388 | -84.82105 | 35861 ft | 368 kts | 256° |
| 2026-05-06 00:51 | 37.28490 | -84.88096 | 35858 ft | 368 kts | 256° |
| 2026-05-06 00:51 | 37.26597 | -84.94058 | 35871 ft | 368 kts | 256° |
| 2026-05-06 00:52 | 37.24697 | -85.00026 | 35865 ft | 368 kts | 256° |
| 2026-05-06 00:52 | 37.22797 | -85.05978 | 35870 ft | 368 kts | 256° |
| 2026-05-06 00:53 | 37.20937 | -85.11920 | 35870 ft | 365 kts | 258° |
| 2026-05-06 00:53 | 37.19603 | -85.18010 | 35874 ft | 361 kts | 262° |
| 2026-05-06 00:54 | 37.18351 | -85.24131 | 35877 ft | 362 kts | 262° |
| 2026-05-06 00:54 | 37.17090 | -85.30242 | 35881 ft | 361 kts | 262° |
| 2026-05-06 00:55 | 37.16041 | -85.35312 | 35872 ft | 361 kts | 262° |
| 2026-05-06 00:55 | 37.14777 | -85.41408 | 35869 ft | 361 kts | 262° |
| 2026-05-06 00:56 | 37.13510 | -85.47500 | 35866 ft | 361 kts | 262° |
| 2026-05-06 00:56 | 37.12239 | -85.53591 | 35860 ft | 361 kts | 262° |
| 2026-05-06 00:57 | 37.10968 | -85.59673 | 35863 ft | 361 kts | 262° |
| 2026-05-06 00:57 | 37.09702 | -85.65708 | 35875 ft | 360 kts | 261° |
| 2026-05-06 00:58 | 37.08425 | -85.71778 | 35879 ft | 360 kts | 261° |
| 2026-05-06 00:58 | 37.07147 | -85.77837 | 35887 ft | 360 kts | 261° |
| 2026-05-06 00:59 | 37.05865 | -85.83903 | 35894 ft | 360 kts | 261° |
| 2026-05-06 00:59 | 37.04588 | -85.89923 | 35897 ft | 360 kts | 261° |
| 2026-05-06 01:00 | 37.03303 | -85.95970 | 35896 ft | 359 kts | 261° |
| 2026-05-06 01:00 | 37.02017 | -86.02000 | 35898 ft | 359 kts | 261° |
| 2026-05-06 01:01 | 37.00728 | -86.08031 | 35892 ft | 358 kts | 261° |
| 2026-05-06 01:01 | 36.99440 | -86.14041 | 35883 ft | 358 kts | 261° |
| 2026-05-06 01:02 | 36.98146 | -86.20062 | 35863 ft | 358 kts | 261° |
| 2026-05-06 01:02 | 36.96851 | -86.26072 | 35865 ft | 357 kts | 261° |
| 2026-05-06 01:03 | 36.95558 | -86.32052 | 35870 ft | 357 kts | 261° |
| 2026-05-06 01:03 | 36.94270 | -86.37999 | 35869 ft | 356 kts | 261° |
| 2026-05-06 01:04 | 36.92761 | -86.43935 | 35870 ft | 361 kts | 256° |
| 2026-05-06 01:04 | 36.90576 | -86.49649 | 35870 ft | 367 kts | 250° |
| 2026-05-06 01:05 | 36.88103 | -86.55235 | 35860 ft | 367 kts | 250° |
| 2026-05-06 01:05 | 36.85648 | -86.60816 | 35855 ft | 367 kts | 250° |
| 2026-05-06 01:06 | 36.83189 | -86.66398 | 35852 ft | 366 kts | 250° |
| 2026-05-06 01:06 | 36.80728 | -86.71969 | 35844 ft | 366 kts | 250° |
| 2026-05-06 01:07 | 36.78268 | -86.77530 | 35836 ft | 366 kts | 250° |
| 2026-05-06 01:07 | 36.75822 | -86.83050 | 35831 ft | 366 kts | 250° |
| 2026-05-06 01:08 | 36.73358 | -86.88599 | 35835 ft | 366 kts | 250° |
| 2026-05-06 01:08 | 36.70891 | -86.94146 | 35834 ft | 365 kts | 250° |
| 2026-05-06 01:09 | 36.68422 | -86.99689 | 35846 ft | 365 kts | 250° |
| 2026-05-06 01:09 | 36.65953 | -87.05222 | 35835 ft | 365 kts | 250° |
| 2026-05-06 01:10 | 36.63479 | -87.10757 | 35840 ft | 365 kts | 250° |
| 2026-05-06 01:10 | 36.61006 | -87.16280 | 35835 ft | 365 kts | 250° |
| 2026-05-06 01:11 | 36.58952 | -87.20862 | 35834 ft | 365 kts | 250° |
| 2026-05-06 01:11 | 36.56075 | -87.27268 | 35832 ft | 365 kts | 250° |
| 2026-05-06 01:12 | 36.53592 | -87.32787 | 35830 ft | 365 kts | 250° |
| 2026-05-06 01:12 | 36.51106 | -87.38302 | 35849 ft | 365 kts | 250° |
| 2026-05-06 01:13 | 36.48625 | -87.43797 | 35850 ft | 365 kts | 250° |
| 2026-05-06 01:13 | 36.46155 | -87.49262 | 35849 ft | 365 kts | 250° |
| 2026-05-06 01:14 | 36.42415 | -87.57517 | 35686 ft | 366 kts | 249° |
| 2026-05-06 01:14 | 36.41165 | -87.60270 | 35439 ft | 366 kts | 249° |
| 2026-05-06 01:14 | 36.39914 | -87.63025 | 35201 ft | 367 kts | 249° |
| 2026-05-06 01:15 | 36.38657 | -87.65793 | 34956 ft | 368 kts | 249° |
| 2026-05-06 01:15 | 36.37396 | -87.68566 | 34721 ft | 369 kts | 249° |
| 2026-05-06 01:15 | 36.36129 | -87.71347 | 34479 ft | 370 kts | 249° |
| 2026-05-06 01:15 | 36.34860 | -87.74132 | 34246 ft | 372 kts | 249° |
| 2026-05-06 01:16 | 36.33586 | -87.76925 | 34012 ft | 373 kts | 248° |
| 2026-05-06 01:16 | 36.32308 | -87.79725 | 33762 ft | 373 kts | 248° |
| 2026-05-06 01:16 | 36.31023 | -87.82541 | 33491 ft | 375 kts | 248° |
| 2026-05-06 01:16 | 36.29733 | -87.85365 | 33233 ft | 378 kts | 248° |
| 2026-05-06 01:17 | 36.28431 | -87.88213 | 32979 ft | 381 kts | 248° |
| 2026-05-06 01:17 | 36.27119 | -87.91080 | 32712 ft | 383 kts | 247° |
| 2026-05-06 01:17 | 36.25800 | -87.93960 | 32452 ft | 385 kts | 247° |
| 2026-05-06 01:17 | 36.24470 | -87.96861 | 32198 ft | 388 kts | 247° |
| 2026-05-06 01:18 | 36.23149 | -87.99740 | 31950 ft | 390 kts | 246° |
| 2026-05-06 01:18 | 36.21804 | -88.02669 | 31702 ft | 393 kts | 246° |
| 2026-05-06 01:18 | 36.20446 | -88.05622 | 31452 ft | 395 kts | 246° |
| 2026-05-06 01:18 | 36.19079 | -88.08595 | 31212 ft | 397 kts | 246° |
| 2026-05-06 01:19 | 36.17710 | -88.11566 | 30960 ft | 400 kts | 245° |
| 2026-05-06 01:19 | 36.16325 | -88.14570 | 30723 ft | 402 kts | 245° |
| 2026-05-06 01:19 | 36.14937 | -88.17579 | 30482 ft | 404 kts | 245° |
| 2026-05-06 01:19 | 36.13545 | -88.20594 | 30248 ft | 404 kts | 245° |
| 2026-05-06 01:20 | 36.12150 | -88.23610 | 30008 ft | 404 kts | 244° |
| 2026-05-06 01:20 | 36.10748 | -88.26637 | 29750 ft | 404 kts | 244° |
| 2026-05-06 01:20 | 36.09354 | -88.29646 | 29478 ft | 403 kts | 244° |
| 2026-05-06 01:20 | 36.07962 | -88.32643 | 29207 ft | 401 kts | 244° |
| 2026-05-06 01:21 | 36.06577 | -88.35626 | 28933 ft | 400 kts | 244° |
| 2026-05-06 01:21 | 36.05195 | -88.38598 | 28667 ft | 398 kts | 244° |
| 2026-05-06 01:21 | 36.03815 | -88.41566 | 28399 ft | 397 kts | 244° |
| 2026-05-06 01:21 | 36.02441 | -88.44519 | 28130 ft | 396 kts | 244° |
| 2026-05-06 01:22 | 36.01070 | -88.47462 | 27880 ft | 394 kts | 244° |
| 2026-05-06 01:22 | 35.99703 | -88.50396 | 27624 ft | 393 kts | 244° |
| 2026-05-06 01:22 | 35.98340 | -88.53316 | 27369 ft | 392 kts | 244° |
| 2026-05-06 01:22 | 35.96997 | -88.56192 | 27116 ft | 391 kts | 244° |
| 2026-05-06 01:23 | 35.95639 | -88.59096 | 26869 ft | 390 kts | 244° |
| 2026-05-06 01:23 | 35.94287 | -88.61986 | 26624 ft | 388 kts | 244° |
| 2026-05-06 01:23 | 35.92920 | -88.64903 | 26375 ft | 386 kts | 244° |
| 2026-05-06 01:23 | 35.91596 | -88.67727 | 26134 ft | 385 kts | 244° |
| 2026-05-06 01:24 | 35.90255 | -88.70585 | 25895 ft | 384 kts | 244° |
| 2026-05-06 01:24 | 35.88919 | -88.73428 | 25643 ft | 383 kts | 244° |
| 2026-05-06 01:24 | 35.87585 | -88.76268 | 25020 ft | 385 kts | 244° |
| 2026-05-06 01:24 | 35.86241 | -88.79127 | 24342 ft | 384 kts | 244° |
| 2026-05-06 01:25 | 35.84905 | -88.81964 | 23659 ft | 381 kts | 244° |
| 2026-05-06 01:25 | 35.83576 | -88.84784 | 22937 ft | 377 kts | 244° |
| 2026-05-06 01:25 | 35.82267 | -88.87555 | 22257 ft | 371 kts | 244° |
| 2026-05-06 01:25 | 35.80983 | -88.90274 | 21594 ft | 364 kts | 244° |
| 2026-05-06 01:26 | 35.79717 | -88.92954 | 20929 ft | 359 kts | 244° |
| 2026-05-06 01:26 | 35.78471 | -88.95589 | 20256 ft | 354 kts | 244° |
| 2026-05-06 01:26 | 35.77239 | -88.98195 | 19619 ft | 349 kts | 244° |
| 2026-05-06 01:26 | 35.76021 | -89.00769 | 18954 ft | 345 kts | 244° |
| 2026-05-06 01:27 | 35.74816 | -89.03312 | 18303 ft | 342 kts | 244° |
| 2026-05-06 01:27 | 35.73598 | -89.05800 | 17592 ft | 339 kts | 241° |
| 2026-05-06 01:27 | 35.72185 | -89.08107 | 17095 ft | 334 kts | 236° |
| 2026-05-06 01:27 | 35.70617 | -89.10180 | 16553 ft | 329 kts | 233° |
| 2026-05-06 01:28 | 35.69043 | -89.12203 | 15930 ft | 325 kts | 233° |
| 2026-05-06 01:28 | 35.67493 | -89.14207 | 15322 ft | 321 kts | 233° |
| 2026-05-06 01:28 | 35.65957 | -89.16195 | 14706 ft | 318 kts | 233° |
| 2026-05-06 01:28 | 35.64437 | -89.18162 | 14067 ft | 316 kts | 233° |
| 2026-05-06 01:29 | 35.62932 | -89.20107 | 13464 ft | 312 kts | 233° |
| 2026-05-06 01:29 | 35.61447 | -89.22026 | 12878 ft | 308 kts | 233° |
| 2026-05-06 01:29 | 35.60001 | -89.23926 | 12473 ft | 297 kts | 235° |
| 2026-05-06 01:29 | 35.58705 | -89.25866 | 12092 ft | 294 kts | 236° |
| 2026-05-06 01:30 | 35.57428 | -89.27790 | 11569 ft | 293 kts | 236° |
| 2026-05-06 01:30 | 35.56139 | -89.29727 | 11034 ft | 291 kts | 235° |
| 2026-05-06 01:30 | 35.54859 | -89.31645 | 10509 ft | 289 kts | 235° |
| 2026-05-06 01:30 | 35.53594 | -89.33536 | 10175 ft | 281 kts | 234° |
| 2026-05-06 01:31 | 35.52383 | -89.35339 | 10038 ft | 266 kts | 234° |
| 2026-05-06 01:31 | 35.51239 | -89.37038 | 10001 ft | 249 kts | 234° |
| 2026-05-06 01:31 | 35.50173 | -89.38618 | 9995 ft | 232 kts | 235° |
| 2026-05-06 01:31 | 35.49139 | -89.40154 | 10001 ft | 236 kts | 234° |
| 2026-05-06 01:32 | 35.48086 | -89.41701 | 9999 ft | 235 kts | 234° |
| 2026-05-06 01:32 | 35.47037 | -89.43238 | 9999 ft | 235 kts | 234° |
| 2026-05-06 01:32 | 35.45989 | -89.44774 | 9860 ft | 234 kts | 234° |
| 2026-05-06 01:32 | 35.44972 | -89.46349 | 9411 ft | 236 kts | 243° |
| 2026-05-06 01:33 | 35.44459 | -89.48251 | 8933 ft | 236 kts | 257° |
| 2026-05-06 01:33 | 35.44111 | -89.50224 | 8455 ft | 238 kts | 258° |
| 2026-05-06 01:33 | 35.43769 | -89.52219 | 7985 ft | 239 kts | 258° |
| 2026-05-06 01:33 | 35.43438 | -89.54189 | 7524 ft | 240 kts | 258° |
| 2026-05-06 01:34 | 35.43109 | -89.56200 | 7073 ft | 241 kts | 258° |
| 2026-05-06 01:34 | 35.42785 | -89.58222 | 6611 ft | 241 kts | 258° |
| 2026-05-06 01:34 | 35.42478 | -89.60244 | 6164 ft | 242 kts | 258° |
| 2026-05-06 01:34 | 35.42182 | -89.62275 | 5690 ft | 242 kts | 258° |
| 2026-05-06 01:35 | 35.41889 | -89.64310 | 5225 ft | 243 kts | 258° |
| 2026-05-06 01:35 | 35.41594 | -89.66357 | 4762 ft | 244 kts | 258° |
| 2026-05-06 01:35 | 35.41299 | -89.68402 | 4283 ft | 244 kts | 258° |
| 2026-05-06 01:35 | 35.41020 | -89.70461 | 3819 ft | 244 kts | 258° |
| 2026-05-06 01:36 | 35.40762 | -89.72522 | 3357 ft | 244 kts | 258° |
| 2026-05-06 01:36 | 35.40527 | -89.74564 | 3084 ft | 237 kts | 258° |
| 2026-05-06 01:36 | 35.40310 | -89.76502 | 2993 ft | 221 kts | 258° |
| 2026-05-06 01:36 | 35.40113 | -89.78315 | 2987 ft | 213 kts | 258° |
| 2026-05-06 01:37 | 35.39932 | -89.80142 | 2987 ft | 217 kts | 258° |
| 2026-05-06 01:37 | 35.39751 | -89.81963 | 2984 ft | 217 kts | 258° |
| 2026-05-06 01:37 | 35.39572 | -89.83788 | 2985 ft | 215 kts | 258° |
| 2026-05-06 01:37 | 35.39380 | -89.85609 | 2991 ft | 216 kts | 258° |
| 2026-05-06 01:38 | 35.39187 | -89.87424 | 2986 ft | 214 kts | 258° |
| 2026-05-06 01:38 | 35.39008 | -89.89247 | 2992 ft | 217 kts | 258° |
| 2026-05-06 01:38 | 35.38830 | -89.91092 | 2983 ft | 218 kts | 258° |
| 2026-05-06 01:38 | 35.38351 | -89.92793 | 2989 ft | 212 kts | 232° |
| 2026-05-06 01:39 | 35.37634 | -89.93599 | 2987 ft | 213 kts | 213° |
| 2026-05-06 01:39 | 35.36306 | -89.94388 | 2984 ft | 212 kts | 208° |
| 2026-05-06 01:39 | 35.34976 | -89.95156 | 2987 ft | 212 kts | 208° |
| 2026-05-06 01:39 | 35.33638 | -89.95947 | 2988 ft | 213 kts | 208° |
| 2026-05-06 01:40 | 35.32307 | -89.96736 | 2982 ft | 212 kts | 208° |
| 2026-05-06 01:40 | 35.30954 | -89.97450 | 2985 ft | 214 kts | 200° |
| 2026-05-06 01:40 | 35.29473 | -89.97776 | 2987 ft | 219 kts | 189° |
| 2026-05-06 01:40 | 35.27952 | -89.97799 | 2982 ft | 219 kts | 184° |
| 2026-05-06 01:41 | 35.26422 | -89.97749 | 2983 ft | 219 kts | 184° |
| 2026-05-06 01:41 | 35.24895 | -89.97717 | 2983 ft | 219 kts | 184° |
| 2026-05-06 01:41 | 35.23381 | -89.97685 | 2901 ft | 216 kts | 184° |
| 2026-05-06 01:41 | 35.21888 | -89.97654 | 2594 ft | 217 kts | 184° |
| 2026-05-06 01:42 | 35.20405 | -89.97621 | 2229 ft | 206 kts | 184° |
| 2026-05-06 01:42 | 35.18973 | -89.97595 | 2045 ft | 212 kts | 183° |
| 2026-05-06 01:42 | 35.17504 | -89.97561 | 2005 ft | 211 kts | 183° |
| 2026-05-06 01:42 | 35.16042 | -89.97531 | 2002 ft | 207 kts | 183° |
| 2026-05-06 01:43 | 35.14650 | -89.97499 | 2000 ft | 186 kts | 183° |
| 2026-05-06 01:43 | 35.13455 | -89.97472 | 1974 ft | 159 kts | 184° |
| 2026-05-06 01:43 | 35.12400 | -89.97452 | 1811 ft | 144 kts | 184° |
| 2026-05-06 01:43 | 35.11458 | -89.97431 | 1623 ft | 126 kts | 184° |
| 2026-05-06 01:44 | 35.10611 | -89.97416 | 1693 ft | 125 kts | 184° |
| 2026-05-06 01:44 | 35.09837 | -89.97396 | 1848 ft | 114 kts | 184° |
| 2026-05-06 01:44 | 35.09112 | -89.97378 | 1558 ft | 115 kts | 184° |
| 2026-05-06 01:44 | 35.08339 | -89.97375 | 1262 ft | 109 kts | 184° |
| 2026-05-06 01:45 | 35.07575 | -89.97400 | 912 ft | 112 kts | 183° |
| 2026-05-06 01:45 | 35.06798 | -89.97398 | 650 ft | 108 kts | 175° |
| 2026-05-06 01:45 | 35.06029 | -89.97288 | 473 ft | 116 kts | 183° |
| 2026-05-06 01:45 | 35.05234 | -89.97223 | 411 ft | 113 kts | 188° |
| 2026-05-06 01:46 | 35.04457 | -89.97265 | 305 ft | 107 kts | 180° |
| 2026-05-06 01:46 | 35.03911 | -89.97271 | 308 ft | 42 kts | 182° |
| 2026-05-06 01:46 | 35.03816 | -89.97310 | 311 ft | 13 kts | 234° |
| 2026-05-06 01:46 | 35.03805 | -89.97363 | 312 ft | 0 kts | 259° |
| 2026-05-06 01:50 | 35.03803 | -89.97375 | 313 ft | 4 kts | 259° |
| 2026-05-06 01:50 | 35.03800 | -89.97420 | 314 ft | 7 kts | 267° |
| 2026-05-06 01:50 | 35.03800 | -89.97485 | 316 ft | 9 kts | 271° |
| 2026-05-06 01:50 | 35.03801 | -89.97581 | 317 ft | 14 kts | 270° |
| 2026-05-06 01:51 | 35.03805 | -89.97700 | 317 ft | 15 kts | 288° |
| 2026-05-06 01:51 | 35.03814 | -89.97792 | 316 ft | 10 kts | 242° |
| 2026-05-06 01:51 | 35.03823 | -89.97847 | 315 ft | 6 kts | 336° |
| 2026-05-06 01:51 | 35.03884 | -89.97844 | 317 ft | 12 kts | 7° |
| 2026-05-06 01:52 | 35.03987 | -89.97833 | 316 ft | 18 kts | 359° |
| 2026-05-06 01:52 | 35.04138 | -89.97834 | 313 ft | 25 kts | 360° |
| 2026-05-06 01:52 | 35.04319 | -89.97835 | 310 ft | 28 kts | 359° |
| 2026-05-06 01:52 | 35.04471 | -89.97887 | 303 ft | 20 kts | 290° |
| 2026-05-06 01:53 | 35.04484 | -89.97916 | 302 ft | 0 kts | 303° |